Time;durP1;ratioP1;P1;durP2;ratioP2;P2;SDS_P1;SDS_P2;PMS_P1;PMS_P2;Temp;Humidity;BMP_temperature;BMP_pressure;BME280_temperature;BME280_humidity;BME280_pressure;Samples;Min_cycle;Max_cycle;Signal;HPM_P1;HPM_P2
2021/11/05 00:02:12;;;;;;;28.30;17.57;;;7.60;99.90;;;;;;5045167;28;20199;-44
2021/11/05 00:04:38;;;;;;;31.70;17.67;;;7.60;99.90;;;;;;5059746;28;20221;-46
2021/11/05 00:07:06;;;;;;;26.57;16.73;;;7.60;99.90;;;;;;5055418;28;20217;-45
2021/11/05 00:09:32;;;;;;;30.03;17.40;;;7.60;99.90;;;;;;5059953;28;20299;-49
2021/11/05 00:11:59;;;;;;;29.57;16.80;;;7.60;99.90;;;;;;5056571;28;20199;-45
2021/11/05 00:14:25;;;;;;;32.53;19.23;;;7.60;99.90;;;;;;5057704;28;20218;-44
2021/11/05 00:16:52;;;;;;;29.67;18.57;;;7.60;99.90;;;;;;5054371;28;20207;-44
2021/11/05 00:19:20;;;;;;;30.13;17.97;;;7.60;99.90;;;;;;5060430;28;20195;-47
2021/11/05 00:21:47;;;;;;;29.17;18.90;;;7.50;99.90;;;;;;5062018;28;20205;-48
2021/11/05 00:24:13;;;;;;;31.33;17.40;;;7.50;99.90;;;;;;5060663;28;20234;-46
2021/11/05 00:26:40;;;;;;;33.67;19.60;;;7.50;99.90;;;;;;5056063;28;20199;-49
2021/11/05 00:29:06;;;;;;;28.30;17.43;;;7.50;99.90;;;;;;5061475;28;20544;-48
2021/11/05 00:31:33;;;;;;;30.83;16.70;;;7.50;99.90;;;;;;5045182;28;20225;-47
2021/11/05 00:33:59;;;;;;;27.00;16.60;;;7.50;99.90;;;;;;5060169;28;20213;-48
2021/11/05 00:36:27;;;;;;;28.80;17.27;;;7.50;99.90;;;;;;5058485;28;20201;-47
2021/11/05 00:38:54;;;;;;;26.10;16.17;;;7.50;99.90;;;;;;5063136;28;20217;-44
2021/11/05 00:41:21;;;;;;;30.87;16.60;;;7.50;99.90;;;;;;5059649;28;20570;-43
2021/11/05 00:43:47;;;;;;;29.27;17.50;;;7.50;99.90;;;;;;5059770;28;20202;-48
2021/11/05 00:46:14;;;;;;;23.53;16.47;;;7.50;99.90;;;;;;5061219;28;20249;-47
2021/11/05 00:48:40;;;;;;;26.97;17.43;;;7.50;99.90;;;;;;5044821;28;20206;-43
2021/11/05 00:51:07;;;;;;;27.10;16.27;;;7.50;99.90;;;;;;5054319;28;20205;-46
2021/11/05 00:53:35;;;;;;;30.30;17.10;;;7.50;99.90;;;;;;5062719;28;20203;-46
2021/11/05 00:56:02;;;;;;;29.90;16.37;;;7.50;99.90;;;;;;5058718;28;20209;-44
2021/11/05 00:58:29;;;;;;;28.63;16.10;;;7.50;99.90;;;;;;5063106;28;20221;-44
2021/11/05 01:00:55;;;;;;;27.20;15.80;;;7.50;99.90;;;;;;5054171;28;20203;-45
2021/11/05 01:03:22;;;;;;;27.40;16.90;;;7.40;99.90;;;;;;5048301;28;20211;-45
2021/11/05 01:05:48;;;;;;;24.37;15.77;;;7.50;99.90;;;;;;5060201;28;20222;-45
2021/11/05 01:08:15;;;;;;;23.30;15.70;;;7.40;99.90;;;;;;5055994;28;20209;-44
2021/11/05 01:10:43;;;;;;;27.00;16.57;;;7.50;99.90;;;;;;5061473;28;20549;-44
2021/11/05 01:13:10;;;;;;;29.73;17.50;;;7.50;99.90;;;;;;5059517;28;20883;-46
2021/11/05 01:15:36;;;;;;;25.20;15.33;;;7.40;99.90;;;;;;5055780;28;20214;-46
2021/11/05 01:18:03;;;;;;;27.10;16.80;;;7.40;99.90;;;;;;5045539;28;20214;-46
2021/11/05 01:20:31;;;;;;;27.67;16.57;;;7.40;99.90;;;;;;5057077;28;20528;-46
2021/11/05 01:22:58;;;;;;;28.27;17.77;;;7.40;99.90;;;;;;5058216;28;20206;-47
2021/11/05 01:25:24;;;;;;;28.20;15.13;;;7.40;99.90;;;;;;5060685;28;20237;-48
2021/11/05 01:27:52;;;;;;;28.07;16.60;;;7.40;99.90;;;;;;5060028;28;20211;-47
2021/11/05 01:30:19;;;;;;;23.47;15.47;;;7.40;99.90;;;;;;5062086;28;20250;-46
2021/11/05 01:32:47;;;;;;;26.70;15.53;;;7.30;99.90;;;;;;5060339;28;20195;-49
2021/11/05 01:35:14;;;;;;;25.07;16.27;;;7.30;99.90;;;;;;5047062;28;20203;-45
2021/11/05 01:37:41;;;;;;;28.80;17.03;;;7.30;99.90;;;;;;5065339;28;20199;-49
2021/11/05 01:40:10;;;;;;;26.37;15.50;;;7.30;99.90;;;;;;5063138;28;20960;-43
2021/11/05 01:42:38;;;;;;;24.83;16.13;;;7.30;99.90;;;;;;5065842;28;20203;-44
2021/11/05 01:45:08;;;;;;;27.00;16.30;;;7.30;99.90;;;;;;5062460;28;20330;-44
2021/11/05 01:47:35;;;;;;;24.33;15.87;;;7.30;99.90;;;;;;5065762;28;20210;-43
2021/11/05 01:50:03;;;;;;;24.80;14.67;;;7.30;99.90;;;;;;5047787;28;20209;-45
2021/11/05 01:52:29;;;;;;;31.33;16.67;;;7.30;99.90;;;;;;5064753;28;20198;-44
2021/11/05 01:54:56;;;;;;;24.90;14.67;;;7.30;99.90;;;;;;5055588;28;20691;-46
2021/11/05 01:57:22;;;;;;;26.43;15.63;;;7.30;99.90;;;;;;5065783;28;20205;-48
2021/11/05 01:59:51;;;;;;;25.93;16.17;;;7.30;99.90;;;;;;5063398;28;20210;-45
2021/11/05 02:02:20;;;;;;;28.10;15.43;;;7.30;99.90;;;;;;5062691;28;20210;-44
2021/11/05 02:04:47;;;;;;;23.17;15.27;;;7.30;99.90;;;;;;5056289;28;20248;-45
2021/11/05 02:07:14;;;;;;;28.43;15.27;;;7.30;99.90;;;;;;5057918;28;20202;-46
2021/11/05 02:09:42;;;;;;;23.47;15.00;;;7.30;99.90;;;;;;5064746;28;20208;-43
2021/11/05 02:12:10;;;;;;;23.90;14.90;;;7.20;99.90;;;;;;5062844;28;20202;-44
2021/11/05 02:14:40;;;;;;;21.10;15.20;;;7.20;99.90;;;;;;5065286;28;20694;-45
2021/11/05 02:17:07;;;;;;;24.53;15.37;;;7.20;99.90;;;;;;5060539;28;20256;-48
2021/11/05 02:19:35;;;;;;;23.53;14.63;;;7.20;99.90;;;;;;5065644;28;20217;-45
2021/11/05 02:22:04;;;;;;;28.50;15.73;;;7.20;99.90;;;;;;5046680;28;20191;-45
2021/11/05 02:24:32;;;;;;;24.60;14.37;;;7.20;99.90;;;;;;5051960;28;20778;-46
2021/11/05 02:26:59;;;;;;;26.80;15.73;;;7.20;99.90;;;;;;5064151;28;20195;-48
2021/11/05 02:29:27;;;;;;;26.43;15.77;;;7.20;99.90;;;;;;5062140;28;20207;-48
2021/11/05 02:31:54;;;;;;;22.00;14.07;;;7.20;99.90;;;;;;5064008;28;20198;-45
2021/11/05 02:34:21;;;;;;;30.43;15.33;;;7.20;99.90;;;;;;5063061;28;20215;-45
2021/11/05 02:36:48;;;;;;;23.67;15.53;;;7.10;99.90;;;;;;5049713;28;21373;-47
2021/11/05 02:39:16;;;;;;;28.00;15.20;;;7.10;99.90;;;;;;5064340;28;20201;-48
2021/11/05 02:41:45;;;;;;;24.30;15.17;;;7.10;99.90;;;;;;5057960;28;20211;-48
2021/11/05 02:44:12;;;;;;;28.93;15.90;;;7.10;99.90;;;;;;5064594;28;20214;-48
2021/11/05 02:46:38;;;;;;;23.50;15.03;;;7.10;99.90;;;;;;5059106;28;20219;-43
2021/11/05 02:49:07;;;;;;;25.80;15.27;;;7.10;99.90;;;;;;5064809;28;20203;-46
2021/11/05 02:51:34;;;;;;;24.53;13.83;;;7.10;99.90;;;;;;5046311;28;20205;-44
2021/11/05 02:54:01;;;;;;;24.13;14.93;;;7.10;99.90;;;;;;5058661;28;20208;-42
2021/11/05 02:56:29;;;;;;;27.67;15.07;;;7.10;99.90;;;;;;5061157;28;20201;-45
2021/11/05 02:58:58;;;;;;;24.87;15.07;;;7.00;99.90;;;;;;5064882;28;20199;-48
2021/11/05 03:01:25;;;;;;;23.27;14.87;;;7.00;99.90;;;;;;5056292;28;20756;-46
2021/11/05 03:03:52;;;;;;;26.57;15.43;;;7.00;99.90;;;;;;5063900;28;20213;-44
2021/11/05 03:06:18;;;;;;;24.53;14.43;;;7.00;99.90;;;;;;5057381;28;20222;-48
2021/11/05 03:08:45;;;;;;;27.43;14.67;;;7.00;99.90;;;;;;5053934;28;20201;-44
2021/11/05 03:11:12;;;;;;;28.30;15.47;;;7.00;99.90;;;;;;5063143;28;20218;-48
2021/11/05 03:13:43;;;;;;;27.50;15.27;;;7.00;99.90;;;;;;5060837;28;20195;-42
2021/11/05 03:16:10;;;;;;;21.13;13.67;;;7.00;99.90;;;;;;5063938;28;20548;-44
2021/11/05 03:18:41;;;;;;;23.67;14.00;;;7.00;99.90;;;;;;5054948;28;20208;-45
2021/11/05 03:21:08;;;;;;;23.60;13.70;;;7.00;99.90;;;;;;5064016;28;20199;-43
2021/11/05 03:23:35;;;;;;;22.73;13.83;;;7.00;99.90;;;;;;5045577;28;20840;-45
2021/11/05 03:26:03;;;;;;;26.07;14.73;;;7.00;99.90;;;;;;5063718;28;20215;-44
2021/11/05 03:28:29;;;;;;;23.90;14.47;;;7.00;99.90;;;;;;5060341;28;20195;-48
2021/11/05 03:30:57;;;;;;;21.43;13.87;;;7.00;99.90;;;;;;5064389;28;20210;-47
2021/11/05 03:33:24;;;;;;;25.37;14.57;;;7.10;99.90;;;;;;5060913;28;20228;-46
2021/11/05 03:35:50;;;;;;;25.07;15.10;;;7.10;99.90;;;;;;5063233;28;20236;-43
2021/11/05 03:38:17;;;;;;;26.97;14.27;;;7.10;99.90;;;;;;5056998;28;20203;-45
2021/11/05 03:40:44;;;;;;;28.57;15.27;;;7.10;99.90;;;;;;5047899;28;20437;-45
2021/11/05 03:43:11;;;;;;;22.33;14.57;;;7.20;99.90;;;;;;5063266;28;20194;-47
2021/11/05 03:45:37;;;;;;;26.87;13.87;;;7.20;99.90;;;;;;5057627;28;20222;-46
2021/11/05 03:48:05;;;;;;;23.50;14.30;;;7.20;99.90;;;;;;5063988;28;20198;-45
2021/11/05 03:50:32;;;;;;;21.63;13.50;;;7.20;99.90;;;;;;5059807;28;20940;-46
2021/11/05 03:52:59;;;;;;;22.70;12.87;;;7.20;99.90;;;;;;5060738;28;20210;-44
2021/11/05 03:55:25;;;;;;;20.23;14.40;;;7.30;99.90;;;;;;5046083;28;20223;-46
2021/11/05 03:57:52;;;;;;;22.30;13.67;;;7.30;99.90;;;;;;5058291;28;20213;-44
2021/11/05 04:00:20;;;;;;;21.70;13.27;;;7.30;99.90;;;;;;5061376;28;20203;-49
2021/11/05 04:02:47;;;;;;;23.93;13.97;;;7.30;99.90;;;;;;5059113;28;20199;-44
2021/11/05 04:05:15;;;;;;;22.43;14.30;;;7.30;99.90;;;;;;5062302;28;20253;-45
2021/11/05 04:07:42;;;;;;;22.53;14.03;;;7.30;99.90;;;;;;5060846;28;20202;-48
2021/11/05 04:10:09;;;;;;;23.50;14.43;;;7.30;99.90;;;;;;5063682;28;20319;-46
2021/11/05 04:12:36;;;;;;;22.07;13.47;;;7.30;99.90;;;;;;5045105;28;20206;-45
2021/11/05 04:15:04;;;;;;;30.73;15.00;;;7.30;99.90;;;;;;5062824;28;20665;-44
2021/11/05 04:17:31;;;;;;;23.87;13.90;;;7.30;99.90;;;;;;5058690;28;20199;-45
2021/11/05 04:19:58;;;;;;;21.33;13.93;;;7.20;99.90;;;;;;5063446;28;20209;-45
2021/11/05 04:22:26;;;;;;;23.73;13.77;;;7.20;99.90;;;;;;5059422;28;20912;-44
2021/11/05 04:24:52;;;;;;;23.93;14.60;;;7.20;99.90;;;;;;5063052;28;20226;-45
2021/11/05 04:27:20;;;;;;;21.90;14.13;;;7.20;99.90;;;;;;5046460;28;20740;-47
2021/11/05 04:29:47;;;;;;;24.70;14.97;;;7.20;99.90;;;;;;5061681;28;20205;-46
2021/11/05 04:32:14;;;;;;;25.20;14.33;;;7.20;99.90;;;;;;5061700;28;20302;-45
2021/11/05 04:34:42;;;;;;;23.40;14.60;;;7.20;99.90;;;;;;5055186;28;20784;-48
2021/11/05 04:37:09;;;;;;;23.00;15.23;;;7.30;99.90;;;;;;5061488;28;20556;-49
2021/11/05 04:39:37;;;;;;;24.10;13.60;;;7.30;99.90;;;;;;5059662;28;20197;-43
2021/11/05 04:42:04;;;;;;;23.43;14.90;;;7.30;99.90;;;;;;5057778;28;20203;-47
2021/11/05 04:44:31;;;;;;;21.10;14.17;;;7.40;99.90;;;;;;5043988;28;20218;-44
2021/11/05 04:46:57;;;;;;;23.90;14.07;;;7.40;99.90;;;;;;5061409;28;20221;-44
2021/11/05 04:49:24;;;;;;;25.00;14.80;;;7.40;99.90;;;;;;5059375;28;20210;-47
2021/11/05 04:51:51;;;;;;;27.33;15.93;;;7.40;99.90;;;;;;5062587;28;20207;-48
2021/11/05 04:54:18;;;;;;;29.50;16.17;;;7.50;99.90;;;;;;5060871;28;20225;-43
2021/11/05 04:56:47;;;;;;;23.20;15.37;;;7.50;99.90;;;;;;5061209;28;20193;-45
2021/11/05 04:59:16;;;;;;;24.83;15.43;;;7.50;99.90;;;;;;5046972;28;20223;-46
2021/11/05 05:01:43;;;;;;;24.90;16.13;;;7.50;99.90;;;;;;5049990;28;20199;-46
2021/11/05 05:04:10;;;;;;;24.30;15.37;;;7.50;99.90;;;;;;5061767;28;20226;-44
2021/11/05 05:06:36;;;;;;;24.03;14.33;;;7.50;99.90;;;;;;5056469;28;20572;-45
2021/11/05 05:09:04;;;;;;;26.80;15.73;;;7.50;99.90;;;;;;5059473;28;20202;-44
2021/11/05 05:11:30;;;;;;;29.47;15.77;;;7.50;99.90;;;;;;5064852;28;20289;-44
2021/11/05 05:13:58;;;;;;;26.37;15.43;;;7.50;99.90;;;;;;5048148;28;20198;-46
2021/11/05 05:16:25;;;;;;;24.57;15.50;;;7.50;99.90;;;;;;5066473;28;20206;-45
2021/11/05 05:18:52;;;;;;;25.23;15.63;;;7.40;99.90;;;;;;5062624;28;20723;-42
2021/11/05 05:21:18;;;;;;;24.80;14.30;;;7.40;99.90;;;;;;5061981;28;20205;-47
2021/11/05 05:23:45;;;;;;;25.40;14.67;;;7.40;99.90;;;;;;5058021;28;20638;-45
2021/11/05 05:26:11;;;;;;;24.87;14.57;;;7.40;99.90;;;;;;5065619;28;20218;-44
2021/11/05 05:28:38;;;;;;;20.23;13.53;;;7.30;99.90;;;;;;5048841;28;20222;-48
2021/11/05 05:31:07;;;;;;;25.87;14.40;;;7.30;99.90;;;;;;5060619;28;20198;-43
2021/11/05 05:33:36;;;;;;;30.33;15.83;;;7.20;99.90;;;;;;5065230;28;20234;-46
2021/11/05 05:36:04;;;;;;;24.20;15.00;;;7.20;99.90;;;;;;5061877;28;20234;-44
2021/11/05 05:38:31;;;;;;;24.87;14.10;;;7.20;99.90;;;;;;5061369;28;20203;-43
2021/11/05 05:40:57;;;;;;;24.93;14.87;;;7.20;99.90;;;;;;5062789;28;20207;-47
2021/11/05 05:43:24;;;;;;;25.37;14.90;;;7.20;99.90;;;;;;5051542;28;20206;-49
2021/11/05 05:45:51;;;;;;;24.30;14.20;;;7.10;99.90;;;;;;5060881;28;20210;-49
2021/11/05 05:48:19;;;;;;;28.87;15.73;;;7.10;99.90;;;;;;5066267;28;20207;-49
2021/11/05 05:50:46;;;;;;;23.13;13.47;;;7.10;99.90;;;;;;5061954;28;20217;-52
2021/11/05 05:53:13;;;;;;;24.77;13.70;;;7.00;99.90;;;;;;5059730;28;20702;-47
2021/11/05 05:55:39;;;;;;;22.47;13.77;;;7.00;99.90;;;;;;5060711;28;20218;-51
2021/11/05 05:58:07;;;;;;;22.00;13.33;;;6.90;99.90;;;;;;5061506;28;20879;-50
2021/11/05 06:00:35;;;;;;;23.37;13.73;;;7.00;99.90;;;;;;5050306;28;20210;-48
2021/11/05 06:03:02;;;;;;;17.37;12.47;;;7.00;99.90;;;;;;5063111;28;20462;-46
2021/11/05 06:05:30;;;;;;;21.43;13.40;;;7.00;99.90;;;;;;5065144;28;20321;-48
2021/11/05 06:07:57;;;;;;;22.47;13.87;;;6.90;99.90;;;;;;5062293;28;20218;-46
2021/11/05 06:10:23;;;;;;;22.80;13.37;;;6.80;99.90;;;;;;5058994;28;20659;-48
2021/11/05 06:12:50;;;;;;;24.70;13.80;;;6.80;99.90;;;;;;5059112;28;20205;-51
2021/11/05 06:15:16;;;;;;;19.23;12.93;;;6.70;99.90;;;;;;5050257;28;20219;-47
2021/11/05 06:17:44;;;;;;;23.53;13.00;;;6.70;99.90;;;;;;5062588;28;20206;-49
2021/11/05 06:20:11;;;;;;;18.47;12.03;;;6.70;99.90;;;;;;5064922;28;20195;-46
2021/11/05 06:22:39;;;;;;;23.70;13.70;;;6.70;99.90;;;;;;5061356;28;20677;-49
2021/11/05 06:25:06;;;;;;;22.30;12.80;;;6.70;99.90;;;;;;5063636;28;20218;-49
2021/11/05 06:27:32;;;;;;;23.80;12.80;;;6.70;99.90;;;;;;5064568;28;20223;-47
2021/11/05 06:29:59;;;;;;;23.87;14.03;;;6.70;99.90;;;;;;5057526;28;21873;-45
2021/11/05 06:32:26;;;;;;;24.10;13.50;;;6.70;99.90;;;;;;5050164;28;20207;-48
2021/11/05 06:34:53;;;;;;;28.50;14.37;;;6.70;99.90;;;;;;5060900;28;20210;-49
2021/11/05 06:37:19;;;;;;;29.73;14.40;;;6.70;99.90;;;;;;5060091;28;20682;-46
2021/11/05 06:39:47;;;;;;;23.00;13.60;;;6.70;99.90;;;;;;5061541;28;20211;-51
2021/11/05 06:42:20;;;;;;;21.43;12.90;;;6.70;99.90;;;;;;5063133;28;20206;-52
2021/11/05 06:44:46;;;;;;;21.70;12.53;;;6.70;99.90;;;;;;5061135;28;20568;-51
2021/11/05 06:47:13;;;;;;;25.83;13.00;;;6.70;99.90;;;;;;5050122;28;20236;-53
2021/11/05 06:49:40;;;;;;;19.67;11.83;;;6.70;99.90;;;;;;5059995;28;20237;-49
2021/11/05 06:52:07;;;;;;;21.23;12.27;;;6.70;99.90;;;;;;5058103;28;20198;-48
2021/11/05 06:54:34;;;;;;;20.83;11.93;;;6.70;99.90;;;;;;5063767;28;20226;-54
2021/11/05 06:57:02;;;;;;;20.20;13.07;;;6.70;99.90;;;;;;5062373;28;20255;-51
2021/11/05 06:59:29;;;;;;;22.17;11.83;;;6.70;99.90;;;;;;5064855;28;20750;-50
2021/11/05 07:01:56;;;;;;;23.67;12.83;;;6.80;99.90;;;;;;5045941;28;20199;-48
2021/11/05 07:04:22;;;;;;;24.80;12.20;;;6.80;99.90;;;;;;5059248;28;20807;-50
2021/11/05 07:06:51;;;;;;;21.47;12.03;;;6.80;99.90;;;;;;5054703;28;20207;-50
2021/11/05 07:09:18;;;;;;;22.87;12.43;;;6.80;99.90;;;;;;5051605;28;20277;-50
2021/11/05 07:11:46;;;;;;;20.20;11.87;;;6.80;99.90;;;;;;5061916;28;20202;-52
2021/11/05 07:14:15;;;;;;;22.47;12.30;;;6.80;99.90;;;;;;5060523;28;20219;-49
2021/11/05 07:16:42;;;;;;;25.80;12.67;;;6.80;99.90;;;;;;5059177;28;20198;-46
2021/11/05 07:19:08;;;;;;;21.17;11.90;;;6.80;99.90;;;;;;5047308;28;20207;-48
2021/11/05 07:21:36;;;;;;;20.73;12.83;;;6.90;99.90;;;;;;5059875;28;20191;-50
2021/11/05 07:24:04;;;;;;;21.60;11.97;;;6.90;99.90;;;;;;5056224;28;20202;-48
2021/11/05 07:26:35;;;;;;;21.23;12.97;;;7.00;99.90;;;;;;5052063;28;20222;-46
2021/11/05 07:29:03;;;;;;;20.50;11.17;;;7.10;99.90;;;;;;5057773;28;20198;-50
2021/11/05 07:31:31;;;;;;;20.53;12.10;;;7.10;99.90;;;;;;5053432;28;20198;-45
2021/11/05 07:33:59;;;;;;;22.60;11.37;;;7.20;99.90;;;;;;5048962;28;20225;-48
2021/11/05 07:36:26;;;;;;;24.80;12.57;;;7.30;99.90;;;;;;5052364;28;20203;-47
2021/11/05 07:38:53;;;;;;;21.20;11.40;;;7.40;99.90;;;;;;5058412;28;20559;-45
2021/11/05 07:41:21;;;;;;;22.37;12.17;;;7.50;99.90;;;;;;5056545;28;20207;-47
2021/11/05 07:43:47;;;;;;;16.67;11.83;;;7.50;99.90;;;;;;5070414;28;20197;-47
2021/11/05 07:46:15;;;;;;;18.60;11.43;;;7.60;99.90;;;;;;5052028;28;20213;-48
2021/11/05 07:48:43;;;;;;;18.30;11.27;;;7.60;99.90;;;;;;5061777;28;20274;-45
2021/11/05 07:51:10;;;;;;;17.33;10.43;;;7.70;99.90;;;;;;5051604;28;20206;-48
2021/11/05 07:53:36;;;;;;;18.67;10.13;;;7.70;99.90;;;;;;5035673;28;20198;-45
2021/11/05 07:56:04;;;;;;;17.97;10.67;;;7.80;99.90;;;;;;5057492;28;20698;-50
2021/11/05 07:58:30;;;;;;;14.40;10.27;;;7.80;99.90;;;;;;5050898;28;20946;-51
2021/11/05 08:00:57;;;;;;;15.90;9.43;;;7.80;99.90;;;;;;5055095;28;20203;-45
2021/11/05 08:03:24;;;;;;;16.27;9.07;;;7.90;99.90;;;;;;5057165;28;20810;-47
2021/11/05 08:05:52;;;;;;;14.60;9.80;;;7.90;99.90;;;;;;5048346;28;20222;-46
2021/11/05 08:08:18;;;;;;;14.60;9.77;;;8.00;99.90;;;;;;5059144;28;20220;-50
2021/11/05 08:10:45;;;;;;;18.47;9.33;;;8.00;99.90;;;;;;5062902;28;20198;-46
2021/11/05 08:13:13;;;;;;;11.63;8.33;;;8.10;99.90;;;;;;5058290;28;20198;-51
2021/11/05 08:15:40;;;;;;;13.20;8.83;;;8.10;99.90;;;;;;5052783;28;20248;-48
2021/11/05 08:18:07;;;;;;;13.53;8.50;;;8.20;99.90;;;;;;5062437;28;20199;-49
2021/11/05 08:20:34;;;;;;;11.87;7.93;;;8.30;99.90;;;;;;5046692;28;20909;-47
2021/11/05 08:23:02;;;;;;;14.80;8.07;;;8.30;99.90;;;;;;5062282;28;20222;-51
2021/11/05 08:25:30;;;;;;;15.27;8.97;;;8.30;99.90;;;;;;5061403;28;20947;-47
2021/11/05 08:27:57;;;;;;;14.70;8.23;;;8.40;99.90;;;;;;5056721;28;20242;-49
2021/11/05 08:30:27;;;;;;;14.10;8.20;;;8.50;99.90;;;;;;5055821;28;20194;-48
2021/11/05 08:32:56;;;;;;;10.80;7.73;;;8.50;99.90;;;;;;5053976;28;20198;-49
2021/11/05 08:35:25;;;;;;;15.50;7.23;;;8.60;99.90;;;;;;5047788;28;20265;-47
2021/11/05 08:37:52;;;;;;;11.17;6.90;;;8.70;99.90;;;;;;5056887;28;20203;-49
2021/11/05 08:40:20;;;;;;;12.23;7.37;;;8.70;99.90;;;;;;5061834;28;20195;-51
2021/11/05 08:42:48;;;;;;;11.90;6.87;;;8.80;99.90;;;;;;5062845;28;20706;-47
2021/11/05 08:45:15;;;;;;;10.43;5.93;;;8.80;99.90;;;;;;5054211;28;20222;-50
2021/11/05 08:47:43;;;;;;;10.27;5.87;;;8.90;99.90;;;;;;5061752;28;20225;-50
2021/11/05 08:50:12;;;;;;;7.97;5.43;;;8.90;99.90;;;;;;5058024;28;20213;-47
2021/11/05 08:52:40;;;;;;;7.33;5.03;;;9.00;99.90;;;;;;5053216;28;20214;-47
2021/11/05 08:55:09;;;;;;;6.90;5.00;;;9.10;99.90;;;;;;5067317;28;20755;-47
2021/11/05 08:57:37;;;;;;;6.87;4.80;;;9.10;99.90;;;;;;5064594;28;20194;-48
2021/11/05 09:00:07;;;;;;;8.90;3.80;;;9.20;99.90;;;;;;5059910;28;20207;-49
2021/11/05 09:02:34;;;;;;;7.70;4.57;;;9.20;99.90;;;;;;5057524;28;20198;-49
2021/11/05 09:05:00;;;;;;;7.93;4.37;;;9.20;99.90;;;;;;5058210;28;20230;-48
2021/11/05 09:07:28;;;;;;;6.97;4.00;;;9.30;99.90;;;;;;5044658;28;20211;-45
2021/11/05 09:09:55;;;;;;;13.73;4.97;;;9.30;99.90;;;;;;5064187;28;20211;-45
2021/11/05 09:12:22;;;;;;;7.57;4.10;;;9.40;99.90;;;;;;5057375;28;20216;-45
2021/11/05 09:14:50;;;;;;;6.90;3.80;;;9.40;99.90;;;;;;5061709;28;20237;-51
2021/11/05 09:17:17;;;;;;;10.13;4.10;;;9.50;99.90;;;;;;5053395;28;20666;-50
2021/11/05 09:19:44;;;;;;;7.57;4.07;;;9.50;99.90;;;;;;5061433;28;20681;-49
2021/11/05 09:22:11;;;;;;;6.20;3.73;;;9.60;99.90;;;;;;5057514;28;20201;-52
2021/11/05 09:24:38;;;;;;;8.13;4.20;;;9.60;99.90;;;;;;5056700;28;20230;-49
2021/11/05 09:27:05;;;;;;;5.20;3.70;;;9.70;99.90;;;;;;5063982;28;20209;-49
2021/11/05 09:29:32;;;;;;;7.70;3.90;;;9.70;99.90;;;;;;5050077;28;20228;-46
2021/11/05 09:32:00;;;;;;;7.93;3.77;;;9.80;99.90;;;;;;5039848;28;20214;-48
2021/11/05 09:34:31;;;;;;;3.73;3.23;;;9.90;99.90;;;;;;5063326;28;20438;-48
2021/11/05 09:36:58;;;;;;;4.30;3.90;;;9.90;99.90;;;;;;5045721;28;20214;-46
2021/11/05 09:39:24;;;;;;;6.87;3.60;;;9.90;99.90;;;;;;5049518;28;20202;-48
2021/11/05 09:41:51;;;;;;;6.60;3.90;;;10.00;99.90;;;;;;5060354;28;20199;-52
2021/11/05 09:44:18;;;;;;;7.50;3.60;;;10.00;99.90;;;;;;5050389;28;20237;-47
2021/11/05 09:46:46;;;;;;;4.40;2.97;;;10.00;99.90;;;;;;5045107;28;20210;-46
2021/11/05 09:49:15;;;;;;;6.80;3.20;;;10.00;99.90;;;;;;5055906;28;20218;-48
2021/11/05 09:51:42;;;;;;;6.43;3.50;;;10.10;99.90;;;;;;5055393;28;20202;-48
2021/11/05 09:54:11;;;;;;;6.77;3.30;;;10.10;99.90;;;;;;5046550;28;20241;-47
2021/11/05 09:56:38;;;;;;;6.37;3.37;;;10.10;99.90;;;;;;5062067;28;20203;-48
2021/11/05 09:59:07;;;;;;;6.10;2.80;;;10.20;99.90;;;;;;5063598;28;20183;-49
2021/11/05 10:01:34;;;;;;;7.27;3.53;;;10.20;99.90;;;;;;5058616;28;20194;-49
2021/11/05 10:04:01;;;;;;;6.60;3.33;;;10.30;99.90;;;;;;5051639;28;20213;-45
2021/11/05 10:06:29;;;;;;;6.13;3.20;;;10.30;99.90;;;;;;5055431;28;20215;-48
2021/11/05 10:08:56;;;;;;;8.80;3.43;;;10.40;99.90;;;;;;5064751;28;20207;-45
2021/11/05 10:11:26;;;;;;;5.30;2.97;;;10.40;99.90;;;;;;5046250;28;20195;-45
2021/11/05 10:13:54;;;;;;;4.70;3.10;;;10.50;99.90;;;;;;5066135;28;20253;-45
2021/11/05 10:16:24;;;;;;;7.47;2.97;;;10.60;99.90;;;;;;5067512;28;20714;-46
2021/11/05 10:18:58;;;;;;;5.93;2.97;;;10.60;99.90;;;;;;5052826;28;20706;-46
2021/11/05 10:21:25;;;;;;;2.73;2.53;;;10.70;99.90;;;;;;5060207;28;20205;-44
2021/11/05 10:23:54;;;;;;;5.30;2.10;;;10.80;99.90;;;;;;5056010;28;20202;-46
2021/11/05 10:26:25;;;;;;;9.00;3.13;;;10.80;99.90;;;;;;5042482;28;20214;-49
2021/11/05 10:28:52;;;;;;;5.80;2.00;;;10.90;99.90;;;;;;5061099;28;20218;-50
2021/11/05 10:31:19;;;;;;;7.53;2.00;;;11.00;99.90;;;;;;5066726;28;20288;-46
2021/11/05 10:33:48;;;;;;;5.93;1.40;;;11.10;99.90;;;;;;5058866;28;20297;-50
2021/11/05 10:36:16;;;;;;;6.97;1.70;;;11.10;99.90;;;;;;5058491;28;20214;-50
2021/11/05 10:38:46;;;;;;;1.90;1.20;;;11.10;99.90;;;;;;5052246;28;20201;-51
2021/11/05 10:41:17;;;;;;;2.00;1.10;;;11.10;99.90;;;;;;5050652;28;20206;-51
2021/11/05 10:43:48;;;;;;;3.30;1.30;;;11.10;99.90;;;;;;5049082;28;20609;-47
2021/11/05 10:46:28;;;;;;;1.43;0.80;;;11.20;99.90;;;;;;5056873;28;20202;-47
2021/11/05 10:48:57;;;;;;;1.93;0.80;;;11.20;99.90;;;;;;5052913;28;20634;-47
2021/11/05 10:51:25;;;;;;;1.10;0.90;;;11.20;99.90;;;;;;5052984;28;20217;-57
2021/11/05 10:53:52;;;;;;;1.27;0.80;;;11.30;99.90;;;;;;5054273;28;20187;-57
2021/11/05 10:56:24;;;;;;;2.40;1.10;;;11.30;99.90;;;;;;5064254;28;20207;-56
2021/11/05 10:58:56;;;;;;;3.70;1.00;;;11.30;99.90;;;;;;5040088;28;20214;-54
2021/11/05 11:01:25;;;;;;;6.30;0.70;;;11.40;99.90;;;;;;5054766;28;20207;-57
2021/11/05 11:03:53;;;;;;;1.50;0.70;;;11.40;99.90;;;;;;5059590;28;20847;-55
2021/11/05 11:06:22;;;;;;;4.03;0.93;;;11.40;99.90;;;;;;5054253;28;20207;-57
2021/11/05 11:08:50;;;;;;;5.00;0.57;;;;;;;;;;5070339;28;20222;-56
2021/11/05 11:11:22;;;;;;;3.27;0.70;;;11.50;99.90;;;;;;5067792;28;20206;-56
2021/11/05 11:13:50;;;;;;;1.53;0.60;;;11.50;99.90;;;;;;5044495;28;20202;-57
2021/11/05 11:16:19;;;;;;;2.27;0.57;;;11.50;99.90;;;;;;5061288;28;20301;-56
2021/11/05 11:18:49;;;;;;;3.53;0.63;;;11.60;99.90;;;;;;5068362;28;20194;-57
2021/11/05 11:21:16;;;;;;;4.13;0.60;;;11.60;99.90;;;;;;5061855;28;20305;-56
2021/11/05 11:23:43;;;;;;;2.10;0.60;;;11.60;99.90;;;;;;5050928;28;20705;-57
2021/11/05 11:26:10;;;;;;;3.50;0.40;;;11.60;99.90;;;;;;5057987;28;20223;-57
2021/11/05 11:28:38;;;;;;;1.83;0.40;;;11.70;99.90;;;;;;5047893;28;20214;-57
2021/11/05 11:31:06;;;;;;;2.97;0.40;;;11.70;99.90;;;;;;5050559;28;20210;-57
2021/11/05 11:33:32;;;;;;;2.23;0.40;;;11.70;99.90;;;;;;5061627;28;21858;-56
2021/11/05 11:36:01;;;;;;;1.83;0.43;;;11.70;99.90;;;;;;5056171;28;20242;-57
2021/11/05 11:38:29;;;;;;;3.30;0.67;;;11.80;99.90;;;;;;5059592;28;20191;-57
2021/11/05 11:40:56;;;;;;;2.87;0.83;;;11.90;99.90;;;;;;5055376;28;20574;-57
2021/11/05 11:43:23;;;;;;;1.40;0.53;;;11.90;99.90;;;;;;5048695;28;20801;-56
2021/11/05 11:45:54;;;;;;;2.37;0.40;;;11.90;99.90;;;;;;5026742;28;20311;-57
2021/11/05 11:48:37;;;;;;;2.23;0.47;;;11.90;99.90;;;;;;5061673;28;20309;-55
2021/11/05 11:51:30;;;;;;;1.83;0.40;;;11.90;99.90;;;;;;5049726;28;20195;-57
2021/11/05 11:53:59;;;;;;;4.00;0.87;;;12.00;99.90;;;;;;5054503;28;20225;-57
2021/11/05 11:56:29;;;;;;;2.10;0.53;;;11.90;99.90;;;;;;5058771;28;20619;-57
2021/11/05 11:58:59;;;;;;;0.77;0.40;;;12.00;99.90;;;;;;5039385;28;20203;-57
2021/11/05 12:01:29;;;;;;;4.43;0.67;;;12.00;99.90;;;;;;5067888;28;20741;-57
2021/11/05 12:03:59;;;;;;;3.43;0.50;;;12.00;99.90;;;;;;5058681;28;20198;-57
2021/11/05 12:06:26;;;;;;;3.87;0.67;;;12.00;99.90;;;;;;5052673;28;20214;-58
2021/11/05 12:08:53;;;;;;;1.97;0.70;;;12.10;99.90;;;;;;5061831;28;20817;-57
2021/11/05 12:11:24;;;;;;;3.03;0.93;;;12.10;99.90;;;;;;5060705;28;20202;-57
2021/11/05 12:13:53;;;;;;;2.20;0.50;;;12.20;99.90;;;;;;5038072;28;21666;-57
2021/11/05 12:16:26;;;;;;;2.50;0.60;;;12.20;99.90;;;;;;5058852;28;20194;-58
2021/11/05 12:19:22;;;;;;;1.70;0.50;;;12.20;99.90;;;;;;5052592;28;20281;-56
2021/11/05 12:22:09;;;;;;;2.57;0.60;;;12.20;99.90;;;;;;5051588;28;20204;-58
2021/11/05 12:24:35;;;;;;;4.77;0.50;;;12.10;99.90;;;;;;5056244;28;20706;-57
2021/11/05 12:27:14;;;;;;;1.73;0.30;;;12.10;99.90;;;;;;5055198;28;20194;-56
2021/11/05 12:29:57;;;;;;;1.10;0.53;;;12.10;99.90;;;;;;5052276;28;20575;-57
2021/11/05 12:32:33;;;;;;;2.87;0.47;;;12.10;99.90;;;;;;5064379;28;20615;-56
2021/11/05 12:35:33;;;;;;;1.43;0.40;;;12.10;99.90;;;;;;5053947;28;20218;-54
2021/11/05 12:38:09;;;;;;;1.67;0.23;;;12.00;99.90;;;;;;5009327;28;20316;-55
2021/11/05 12:40:41;;;;;;;0.90;0.47;;;12.00;99.90;;;;;;5048326;28;20297;-58
2021/11/05 12:43:36;;;;;;;1.10;0.27;;;12.00;99.90;;;;;;5056348;28;20348;-56
2021/11/05 12:46:06;;;;;;;3.40;0.30;;;12.00;99.90;;;;;;5044412;28;20220;-57